sensor_id;sensor_type;location;lat;lon;timestamp;pressure;altitude;pressure_sealevel;temperature;humidity
77161;BME280;66135;0.000;0.000;2022-12-29T00:01:59;99974.63;;;17.91;64.01
77161;BME280;66135;0.000;0.000;2022-12-29T00:04:24;99973.16;;;17.88;63.93
77161;BME280;66135;0.000;0.000;2022-12-29T00:06:52;99981.47;;;17.87;64.30
77161;BME280;66135;0.000;0.000;2022-12-29T00:09:17;99973.53;;;17.85;64.03
77161;BME280;66135;0.000;0.000;2022-12-29T00:11:43;99978.31;;;17.83;63.92
77161;BME280;66135;0.000;0.000;2022-12-29T00:14:10;99973.06;;;17.82;63.81
77161;BME280;66135;0.000;0.000;2022-12-29T00:16:55;99963.28;;;17.81;63.94
77161;BME280;66135;0.000;0.000;2022-12-29T00:19:21;99946.38;;;17.79;63.94
77161;BME280;66135;0.000;0.000;2022-12-29T00:22:05;99950.13;;;17.78;64.09
77161;BME280;66135;0.000;0.000;2022-12-29T00:24:49;99953.03;;;17.76;64.01
77161;BME280;66135;0.000;0.000;2022-12-29T00:27:30;99936.16;;;17.74;64.10
77161;BME280;66135;0.000;0.000;2022-12-29T00:30:18;99917.38;;;17.73;63.99
77161;BME280;66135;0.000;0.000;2022-12-29T00:33:20;99915.03;;;17.70;64.08
77161;BME280;66135;0.000;0.000;2022-12-29T00:36:25;99913.38;;;17.69;64.09
77161;BME280;66135;0.000;0.000;2022-12-29T00:38:57;99920.84;;;17.67;64.05
77161;BME280;66135;0.000;0.000;2022-12-29T00:41:42;99928.13;;;17.66;64.14
77161;BME280;66135;0.000;0.000;2022-12-29T00:44:26;99914.78;;;17.65;64.33
77161;BME280;66135;0.000;0.000;2022-12-29T00:46:51;99922.25;;;17.63;64.29
77161;BME280;66135;0.000;0.000;2022-12-29T00:49:17;99923.31;;;17.62;64.20
77161;BME280;66135;0.000;0.000;2022-12-29T00:54:26;99903.91;;;17.58;64.23
77161;BME280;66135;0.000;0.000;2022-12-29T00:56:51;99912.03;;;17.58;64.18
77161;BME280;66135;0.000;0.000;2022-12-29T00:59:18;99901.38;;;17.57;64.19
77161;BME280;66135;0.000;0.000;2022-12-29T01:01:44;99898.88;;;17.55;64.29
77161;BME280;66135;0.000;0.000;2022-12-29T01:04:10;99898.03;;;17.55;64.16
77161;BME280;66135;0.000;0.000;2022-12-29T01:06:38;99888.41;;;17.52;64.30
77161;BME280;66135;0.000;0.000;2022-12-29T01:09:05;99884.88;;;17.52;64.35
77161;BME280;66135;0.000;0.000;2022-12-29T01:11:49;99872.38;;;17.51;64.18
77161;BME280;66135;0.000;0.000;2022-12-29T01:14:14;99869.84;;;17.49;64.20
77161;BME280;66135;0.000;0.000;2022-12-29T01:16:40;99877.13;;;17.49;64.26
77161;BME280;66135;0.000;0.000;2022-12-29T01:19:05;99883.78;;;17.46;64.30
77161;BME280;66135;0.000;0.000;2022-12-29T01:21:31;99885.63;;;17.46;64.32
77161;BME280;66135;0.000;0.000;2022-12-29T01:23:57;99889.38;;;17.45;64.30
77161;BME280;66135;0.000;0.000;2022-12-29T01:26:22;99883.09;;;17.44;64.34
77161;BME280;66135;0.000;0.000;2022-12-29T01:28:47;99882.47;;;17.42;64.18
77161;BME280;66135;0.000;0.000;2022-12-29T01:31:14;99886.22;;;17.41;64.26
77161;BME280;66135;0.000;0.000;2022-12-29T01:33:42;99868.06;;;17.42;64.40
77161;BME280;66135;0.000;0.000;2022-12-29T01:36:10;99872.03;;;17.39;64.30
77161;BME280;66135;0.000;0.000;2022-12-29T01:38:37;99865.75;;;17.39;64.33
77161;BME280;66135;0.000;0.000;2022-12-29T01:41:04;99859.69;;;17.37;64.33
77161;BME280;66135;0.000;0.000;2022-12-29T01:51:37;99861.13;;;17.33;64.35
77161;BME280;66135;0.000;0.000;2022-12-29T01:54:09;99852.38;;;17.31;64.34
77161;BME280;66135;0.000;0.000;2022-12-29T01:56:36;99861.50;;;17.30;64.31
77161;BME280;66135;0.000;0.000;2022-12-29T01:59:23;99854.44;;;17.29;64.48
77161;BME280;66135;0.000;0.000;2022-12-29T02:01:50;99861.69;;;17.28;64.48
77161;BME280;66135;0.000;0.000;2022-12-29T02:04:16;99878.13;;;17.27;64.33
77161;BME280;66135;0.000;0.000;2022-12-29T02:06:57;99876.47;;;17.26;64.49
77161;BME280;66135;0.000;0.000;2022-12-29T02:09:24;99881.03;;;17.25;64.43
77161;BME280;66135;0.000;0.000;2022-12-29T02:11:50;99885.81;;;17.23;64.58
77161;BME280;66135;0.000;0.000;2022-12-29T02:14:16;99880.59;;;17.22;64.47
77161;BME280;66135;0.000;0.000;2022-12-29T02:19:36;99872.66;;;17.20;64.44
77161;BME280;66135;0.000;0.000;2022-12-29T02:27:40;99879.28;;;17.18;64.36
77161;BME280;66135;0.000;0.000;2022-12-29T02:30:26;99872.22;;;17.17;64.53
77161;BME280;66135;0.000;0.000;2022-12-29T02:39:26;99860.94;;;17.13;64.49
77161;BME280;66135;0.000;0.000;2022-12-29T02:41:32;99856.53;;;17.12;64.70
77161;BME280;66135;0.000;0.000;2022-12-29T02:47:16;99847.78;;;17.10;64.32
77161;BME280;66135;0.000;0.000;2022-12-29T02:49:59;99847.78;;;17.10;64.51
77161;BME280;66135;0.000;0.000;2022-12-29T02:52:50;99846.28;;;17.08;64.51
77161;BME280;66135;0.000;0.000;2022-12-29T02:55:17;99840.88;;;17.08;64.44
77161;BME280;66135;0.000;0.000;2022-12-29T02:57:42;99843.78;;;17.06;63.92
77161;BME280;66135;0.000;0.000;2022-12-29T03:00:28;99825.03;;;17.05;64.54
77161;BME280;66135;0.000;0.000;2022-12-29T03:05:41;99829.81;;;17.03;64.42
77161;BME280;66135;0.000;0.000;2022-12-29T03:08:24;99824.38;;;17.03;64.63
77161;BME280;66135;0.000;0.000;2022-12-29T03:11:05;99828.94;;;17.02;64.67
77161;BME280;66135;0.000;0.000;2022-12-29T03:13:55;99827.28;;;17.01;64.68
77161;BME280;66135;0.000;0.000;2022-12-29T03:16:45;99830.19;;;17.00;64.47
77161;BME280;66135;0.000;0.000;2022-12-29T03:19:24;99823.09;;;16.99;64.69
77161;BME280;66135;0.000;0.000;2022-12-29T03:21:56;99823.09;;;16.99;64.21
77161;BME280;66135;0.000;0.000;2022-12-29T03:24:48;99827.66;;;16.98;64.53
77161;BME280;66135;0.000;0.000;2022-12-29T03:27:19;99819.53;;;16.98;64.56
77161;BME280;66135;0.000;0.000;2022-12-29T03:29:50;99824.13;;;16.98;64.85
77161;BME280;66135;0.000;0.000;2022-12-29T03:32:26;99827.03;;;16.96;64.69
77161;BME280;66135;0.000;0.000;2022-12-29T03:34:53;99828.88;;;16.96;64.63
77161;BME280;66135;0.000;0.000;2022-12-29T03:37:27;99835.16;;;16.96;64.63
77161;BME280;66135;0.000;0.000;2022-12-29T03:39:55;99820.97;;;16.94;64.68
77161;BME280;66135;0.000;0.000;2022-12-29T03:42:23;99830.94;;;16.94;64.61
77161;BME280;66135;0.000;0.000;2022-12-29T03:44:53;99827.38;;;16.93;64.54
77161;BME280;66135;0.000;0.000;2022-12-29T03:47:19;99814.91;;;16.92;64.53
77161;BME280;66135;0.000;0.000;2022-12-29T03:49:44;99824.88;;;16.92;64.55
77161;BME280;66135;0.000;0.000;2022-12-29T03:52:10;99807.84;;;16.91;64.61
77161;BME280;66135;0.000;0.000;2022-12-29T03:54:35;99817.81;;;16.91;64.55
77161;BME280;66135;0.000;0.000;2022-12-29T03:57:00;99826.13;;;16.89;64.62
77161;BME280;66135;0.000;0.000;2022-12-29T03:59:26;99837.13;;;16.88;64.69
77161;BME280;66135;0.000;0.000;2022-12-29T04:01:51;99851.47;;;16.88;64.62
77161;BME280;66135;0.000;0.000;2022-12-29T04:04:17;99849.81;;;16.87;64.65
77161;BME280;66135;0.000;0.000;2022-12-29T04:06:42;99858.13;;;16.85;64.73
77161;BME280;66135;0.000;0.000;2022-12-29T04:09:09;99861.66;;;16.86;64.71
77161;BME280;66135;0.000;0.000;2022-12-29T04:11:34;99851.03;;;16.84;64.76
77161;BME280;66135;0.000;0.000;2022-12-29T04:14:00;99841.25;;;16.83;64.74
77161;BME280;66135;0.000;0.000;2022-12-29T04:16:25;99849.34;;;16.83;64.67
77161;BME280;66135;0.000;0.000;2022-12-29T04:18:51;99842.25;;;16.82;64.73
77161;BME280;66135;0.000;0.000;2022-12-29T04:21:16;99855.78;;;16.82;64.68
77161;BME280;66135;0.000;0.000;2022-12-29T04:23:41;99867.63;;;16.81;64.56
77161;BME280;66135;0.000;0.000;2022-12-29T04:26:07;99865.78;;;16.82;64.63
77161;BME280;66135;0.000;0.000;2022-12-29T04:28:34;99862.22;;;16.81;64.77
77161;BME280;66135;0.000;0.000;2022-12-29T04:31:00;99856.16;;;16.79;64.80
77161;BME280;66135;0.000;0.000;2022-12-29T04:33:25;99859.91;;;16.78;64.38
77161;BME280;66135;0.000;0.000;2022-12-29T04:35:51;99859.91;;;16.78;64.75
77161;BME280;66135;0.000;0.000;2022-12-29T04:38:19;99868.22;;;16.77;64.78
77161;BME280;66135;0.000;0.000;2022-12-29T04:40:45;99865.50;;;16.77;64.81
77161;BME280;66135;0.000;0.000;2022-12-29T04:43:11;99865.50;;;16.77;64.65
77161;BME280;66135;0.000;0.000;2022-12-29T04:45:37;99872.78;;;16.76;64.67
77161;BME280;66135;0.000;0.000;2022-12-29T04:48:02;99887.31;;;16.75;64.67
77161;BME280;66135;0.000;0.000;2022-12-29T04:50:28;99889.19;;;16.75;64.70
77161;BME280;66135;0.000;0.000;2022-12-29T04:52:54;99884.81;;;16.74;64.58
77161;BME280;66135;0.000;0.000;2022-12-29T04:55:19;99887.50;;;16.74;64.67
77161;BME280;66135;0.000;0.000;2022-12-29T04:57:45;99893.09;;;16.72;64.43
77161;BME280;66135;0.000;0.000;2022-12-29T05:00:11;99903.91;;;16.72;64.96
77161;BME280;66135;0.000;0.000;2022-12-29T05:02:37;99910.38;;;16.71;64.79
77161;BME280;66135;0.000;0.000;2022-12-29T05:05:03;99911.38;;;16.70;64.67
77161;BME280;66135;0.000;0.000;2022-12-29T05:07:29;99912.22;;;16.71;64.75
77161;BME280;66135;0.000;0.000;2022-12-29T05:09:54;99910.56;;;16.70;64.68
77161;BME280;66135;0.000;0.000;2022-12-29T05:12:20;99915.13;;;16.69;64.73
77161;BME280;66135;0.000;0.000;2022-12-29T05:14:45;99929.66;;;16.68;64.48
77161;BME280;66135;0.000;0.000;2022-12-29T05:17:11;99925.28;;;16.67;64.05
77161;BME280;66135;0.000;0.000;2022-12-29T05:19:37;99928.00;;;16.67;64.39
77161;BME280;66135;0.000;0.000;2022-12-29T05:22:03;99932.56;;;16.67;64.10
77161;BME280;66135;0.000;0.000;2022-12-29T05:24:29;99934.44;;;16.66;64.38
77161;BME280;66135;0.000;0.000;2022-12-29T05:26:54;99928.19;;;16.66;64.29
77161;BME280;66135;0.000;0.000;2022-12-29T05:29:20;99926.31;;;16.66;64.44
77161;BME280;66135;0.000;0.000;2022-12-29T05:31:45;99934.44;;;16.66;64.52
77161;BME280;66135;0.000;0.000;2022-12-29T05:34:11;99925.66;;;16.64;64.75
77161;BME280;66135;0.000;0.000;2022-12-29T05:36:36;99930.03;;;16.65;64.96
77161;BME280;66135;0.000;0.000;2022-12-29T05:39:02;99926.50;;;16.65;64.87
77161;BME280;66135;0.000;0.000;2022-12-29T05:41:27;99935.44;;;16.65;64.87
77161;BME280;66135;0.000;0.000;2022-12-29T05:43:53;99938.16;;;16.65;64.86
77161;BME280;66135;0.000;0.000;2022-12-29T05:46:18;99954.38;;;16.65;64.88
77161;BME280;66135;0.000;0.000;2022-12-29T05:48:43;99943.75;;;16.64;64.82
77161;BME280;66135;0.000;0.000;2022-12-29T05:51:09;99948.13;;;16.65;64.99
77161;BME280;66135;0.000;0.000;2022-12-29T05:53:34;99949.16;;;16.64;64.98
77161;BME280;66135;0.000;0.000;2022-12-29T05:56:00;99954.75;;;16.62;65.05
77161;BME280;66135;0.000;0.000;2022-12-29T05:58:25;99962.69;;;16.64;65.15
77161;BME280;66135;0.000;0.000;2022-12-29T06:00:51;99965.56;;;16.62;65.09
77161;BME280;66135;0.000;0.000;2022-12-29T06:03:16;99970.13;;;16.62;65.23
77161;BME280;66135;0.000;0.000;2022-12-29T06:05:41;99963.06;;;16.61;65.28
77161;BME280;66135;0.000;0.000;2022-12-29T06:08:09;99962.22;;;16.60;65.12
77161;BME280;66135;0.000;0.000;2022-12-29T06:10:34;99963.06;;;16.61;65.29
77161;BME280;66135;0.000;0.000;2022-12-29T06:13:00;99962.22;;;16.60;65.40
77161;BME280;66135;0.000;0.000;2022-12-29T06:15:31;99953.09;;;16.61;65.21
77161;BME280;66135;0.000;0.000;2022-12-29T06:17:56;99949.72;;;16.59;65.05
77161;BME280;66135;0.000;0.000;2022-12-29T06:20:22;99963.25;;;16.59;65.15
77161;BME280;66135;0.000;0.000;2022-12-29T06:22:47;99959.69;;;16.59;65.20
77161;BME280;66135;0.000;0.000;2022-12-29T06:25:14;99960.72;;;16.58;65.43
77161;BME280;66135;0.000;0.000;2022-12-29T06:27:40;99957.19;;;16.57;65.40
77161;BME280;66135;0.000;0.000;2022-12-29T06:30:06;99962.78;;;16.56;65.34
77161;BME280;66135;0.000;0.000;2022-12-29T06:32:31;99957.19;;;16.57;65.46
77161;BME280;66135;0.000;0.000;2022-12-29T06:34:57;99979.81;;;16.56;65.34
77161;BME280;66135;0.000;0.000;2022-12-29T06:37:22;99963.78;;;16.55;65.45
77161;BME280;66135;0.000;0.000;2022-12-29T06:39:48;99960.28;;;16.54;65.36
77161;BME280;66135;0.000;0.000;2022-12-29T06:42:13;99949.47;;;16.54;65.46
77161;BME280;66135;0.000;0.000;2022-12-29T06:44:38;99967.53;;;16.54;65.47
77161;BME280;66135;0.000;0.000;2022-12-29T06:47:04;99959.63;;;16.52;65.56
77161;BME280;66135;0.000;0.000;2022-12-29T06:49:29;99963.13;;;16.53;65.34
77161;BME280;66135;0.000;0.000;2022-12-29T06:51:55;99948.78;;;16.52;65.45
77161;BME280;66135;0.000;0.000;2022-12-29T06:54:23;99967.06;;;16.50;65.34
77161;BME280;66135;0.000;0.000;2022-12-29T06:56:48;99966.22;;;16.50;65.41
77161;BME280;66135;0.000;0.000;2022-12-29T06:59:14;99955.41;;;16.50;65.57
77161;BME280;66135;0.000;0.000;2022-12-29T07:01:39;99954.56;;;16.49;65.41
77161;BME280;66135;0.000;0.000;2022-12-29T07:04:05;99957.25;;;16.49;65.41
77161;BME280;66135;0.000;0.000;2022-12-29T07:06:30;99969.09;;;16.48;65.34
77161;BME280;66135;0.000;0.000;2022-12-29T07:08:55;99969.97;;;16.49;65.43
77161;BME280;66135;0.000;0.000;2022-12-29T07:11:22;99959.97;;;16.49;65.53
77161;BME280;66135;0.000;0.000;2022-12-29T07:13:48;99984.28;;;16.49;65.62
77161;BME280;66135;0.000;0.000;2022-12-29T07:16:14;99986.19;;;16.49;65.79
77161;BME280;66135;0.000;0.000;2022-12-29T07:18:39;99991.59;;;16.49;65.80
77161;BME280;66135;0.000;0.000;2022-12-29T07:21:04;99987.00;;;16.49;65.78
77161;BME280;66135;0.000;0.000;2022-12-29T07:23:30;99984.47;;;16.48;65.88
77161;BME280;66135;0.000;0.000;2022-12-29T07:26:01;99993.63;;;16.47;65.79
77161;BME280;66135;0.000;0.000;2022-12-29T07:28:30;99987.84;;;16.50;66.04
77161;BME280;66135;0.000;0.000;2022-12-29T07:30:55;100000.97;;;16.53;65.75
77161;BME280;66135;0.000;0.000;2022-12-29T07:33:21;100004.53;;;16.53;65.82
77161;BME280;66135;0.000;0.000;2022-12-29T07:35:46;99998.13;;;16.54;65.71
77161;BME280;66135;0.000;0.000;2022-12-29T07:38:12;100007.03;;;16.55;66.13
77161;BME280;66135;0.000;0.000;2022-12-29T07:40:37;100018.91;;;16.54;65.67
77161;BME280;66135;0.000;0.000;2022-12-29T07:43:03;100010.59;;;16.55;65.78
77161;BME280;66135;0.000;0.000;2022-12-29T07:45:29;100005.00;;;16.57;66.36
77161;BME280;66135;0.000;0.000;2022-12-29T07:47:54;100008.75;;;16.56;66.31
77161;BME280;66135;0.000;0.000;2022-12-29T07:50:20;100020.38;;;16.56;66.20
77161;BME280;66135;0.000;0.000;2022-12-29T07:52:45;100013.31;;;16.55;66.37
77161;BME280;66135;0.000;0.000;2022-12-29T07:55:13;100005.38;;;16.54;66.22
77161;BME280;66135;0.000;0.000;2022-12-29T07:57:39;100019.09;;;16.52;66.69
77161;BME280;66135;0.000;0.000;2022-12-29T08:00:04;100016.56;;;16.51;66.60
77161;BME280;66135;0.000;0.000;2022-12-29T08:02:30;100013.22;;;16.49;66.53
77161;BME280;66135;0.000;0.000;2022-12-29T08:04:55;100018.63;;;16.49;66.71
77161;BME280;66135;0.000;0.000;2022-12-29T08:07:21;100025.88;;;16.48;66.73
77161;BME280;66135;0.000;0.000;2022-12-29T08:09:46;100028.78;;;16.47;66.70
77161;BME280;66135;0.000;0.000;2022-12-29T08:12:12;100018.13;;;16.45;66.65
77161;BME280;66135;0.000;0.000;2022-12-29T08:14:38;100028.94;;;16.45;66.86
77161;BME280;66135;0.000;0.000;2022-12-29T08:17:03;100030.97;;;16.43;66.89
77161;BME280;66135;0.000;0.000;2022-12-29T08:19:29;100027.41;;;16.43;66.55
77161;BME280;66135;0.000;0.000;2022-12-29T08:21:54;100036.38;;;16.43;66.59
77161;BME280;66135;0.000;0.000;2022-12-29T08:24:20;100043.63;;;16.43;66.64
77161;BME280;66135;0.000;0.000;2022-12-29T08:26:45;100049.22;;;16.41;66.67
77161;BME280;66135;0.000;0.000;2022-12-29T08:29:11;100057.34;;;16.41;66.60
77161;BME280;66135;0.000;0.000;2022-12-29T08:31:36;100052.78;;;16.42;66.53
77161;BME280;66135;0.000;0.000;2022-12-29T08:34:03;100051.94;;;16.41;66.68
77161;BME280;66135;0.000;0.000;2022-12-29T08:36:29;100055.47;;;16.42;66.45
77161;BME280;66135;0.000;0.000;2022-12-29T08:38:55;100054.44;;;16.43;66.25
77161;BME280;66135;0.000;0.000;2022-12-29T08:41:20;100050.91;;;16.42;66.54
77161;BME280;66135;0.000;0.000;2022-12-29T08:43:48;100051.94;;;16.41;66.69
77161;BME280;66135;0.000;0.000;2022-12-29T08:46:15;100042.16;;;16.40;66.83
77161;BME280;66135;0.000;0.000;2022-12-29T08:48:40;100050.25;;;16.40;66.92
77161;BME280;66135;0.000;0.000;2022-12-29T08:51:06;100044.84;;;16.40;66.78
77161;BME280;66135;0.000;0.000;2022-12-29T08:53:31;100055.81;;;16.39;66.63
77161;BME280;66135;0.000;0.000;2022-12-29T08:55:58;100040.47;;;16.39;66.89
77161;BME280;66135;0.000;0.000;2022-12-29T08:58:24;100045.88;;;16.39;66.70
77161;BME280;66135;0.000;0.000;2022-12-29T09:00:55;100046.72;;;16.40;66.71
77161;BME280;66135;0.000;0.000;2022-12-29T09:03:21;100060.41;;;16.38;66.63
77161;BME280;66135;0.000;0.000;2022-12-29T09:05:47;100052.84;;;16.34;66.33
77161;BME280;66135;0.000;0.000;2022-12-29T09:08:13;100059.09;;;16.34;66.11
77161;BME280;66135;0.000;0.000;2022-12-29T09:10:38;100066.00;;;16.37;66.49
77161;BME280;66135;0.000;0.000;2022-12-29T09:13:04;100041.50;;;16.38;66.15
77161;BME280;66135;0.000;0.000;2022-12-29T09:15:29;100058.84;;;16.44;66.00
77161;BME280;66135;0.000;0.000;2022-12-29T09:17:54;100059.66;;;16.44;66.02
77161;BME280;66135;0.000;0.000;2022-12-29T09:20:20;100061.38;;;16.45;66.29
77161;BME280;66135;0.000;0.000;2022-12-29T09:22:46;100062.19;;;16.46;66.47
77161;BME280;66135;0.000;0.000;2022-12-29T09:25:12;100076.41;;;16.48;66.45
77161;BME280;66135;0.000;0.000;2022-12-29T09:27:38;100068.81;;;16.43;66.59
77161;BME280;66135;0.000;0.000;2022-12-29T09:30:06;100073.00;;;16.46;66.18
77161;BME280;66135;0.000;0.000;2022-12-29T09:32:32;100073.88;;;16.46;66.33
77161;BME280;66135;0.000;0.000;2022-12-29T09:34:58;100075.69;;;16.46;66.42
77161;BME280;66135;0.000;0.000;2022-12-29T09:37:23;100084.69;;;16.46;66.53
77161;BME280;66135;0.000;0.000;2022-12-29T09:39:48;100089.91;;;16.48;66.41
77161;BME280;66135;0.000;0.000;2022-12-29T09:45:23;100090.44;;;16.43;66.45
77161;BME280;66135;0.000;0.000;2022-12-29T09:47:46;100112.25;;;16.42;66.65
77161;BME280;66135;0.000;0.000;2022-12-29T09:52:47;100122.91;;;16.35;65.17
77161;BME280;66135;0.000;0.000;2022-12-29T09:55:21;100109.59;;;16.34;65.22
77161;BME280;66135;0.000;0.000;2022-12-29T12:09:58;100283.63;;;17.09;65.42
77161;BME280;66135;0.000;0.000;2022-12-29T12:12:39;100273.00;;;17.07;65.25
77161;BME280;66135;0.000;0.000;2022-12-29T12:15:13;100274.22;;;17.05;65.63
77161;BME280;66135;0.000;0.000;2022-12-29T12:17:51;100278.09;;;17.02;65.63
77161;BME280;66135;0.000;0.000;2022-12-29T12:20:32;100280.34;;;16.99;65.64
77161;BME280;66135;0.000;0.000;2022-12-29T12:23:36;100273.06;;;16.99;65.61
77161;BME280;66135;0.000;0.000;2022-12-29T12:26:11;100283.03;;;16.99;65.53
77161;BME280;66135;0.000;0.000;2022-12-29T12:31:53;100302.16;;;16.97;65.19
77161;BME280;66135;0.000;0.000;2022-12-29T12:34:29;100294.91;;;16.98;65.28
77161;BME280;66135;0.000;0.000;2022-12-29T12:39:47;100290.50;;;16.97;65.27
77161;BME280;66135;0.000;0.000;2022-12-29T12:45:26;100302.34;;;16.96;65.27
77161;BME280;66135;0.000;0.000;2022-12-29T12:48:16;100308.75;;;16.95;65.35
77161;BME280;66135;0.000;0.000;2022-12-29T12:53:17;100306.91;;;16.95;65.08
77161;BME280;66135;0.000;0.000;2022-12-29T12:55:54;100317.06;;;16.93;65.33
77161;BME280;66135;0.000;0.000;2022-12-29T13:20:16;100319.25;;;16.98;65.61
77161;BME280;66135;0.000;0.000;2022-12-29T13:23:00;100319.91;;;17.00;65.79
77161;BME280;66135;0.000;0.000;2022-12-29T13:28:42;100334.25;;;17.00;65.81
77161;BME280;66135;0.000;0.000;2022-12-29T13:34:42;100338.84;;;17.00;66.28
77161;BME280;66135;0.000;0.000;2022-12-29T13:37:16;100327.84;;;17.01;65.98
77161;BME280;66135;0.000;0.000;2022-12-29T13:39:48;100346.78;;;17.01;65.82
77161;BME280;66135;0.000;0.000;2022-12-29T13:42:18;100333.94;;;17.03;66.13
77161;BME280;66135;0.000;0.000;2022-12-29T13:44:47;100344.56;;;17.05;66.12
77161;BME280;66135;0.000;0.000;2022-12-29T13:49:39;100355.91;;;17.00;66.43
77161;BME280;66135;0.000;0.000;2022-12-29T13:52:31;100357.63;;;17.01;66.22
77161;BME280;66135;0.000;0.000;2022-12-29T13:55:22;100367.03;;;17.05;66.75
77161;BME280;66135;0.000;0.000;2022-12-29T14:00:53;100356.69;;;17.09;67.11
77161;BME280;66135;0.000;0.000;2022-12-29T14:08:52;100358.28;;;17.03;66.32
77161;BME280;66135;0.000;0.000;2022-12-29T14:11:21;100376.56;;;17.01;65.86
77161;BME280;66135;0.000;0.000;2022-12-29T14:13:47;100365.91;;;17.00;65.30
77161;BME280;66135;0.000;0.000;2022-12-29T14:16:31;100364.41;;;16.97;65.93
77161;BME280;66135;0.000;0.000;2022-12-29T14:19:05;100371.66;;;16.97;66.05
77161;BME280;66135;0.000;0.000;2022-12-29T14:21:34;100372.69;;;16.96;65.75
77161;BME280;66135;0.000;0.000;2022-12-29T14:26:56;100360.34;;;16.93;65.92
77161;BME280;66135;0.000;0.000;2022-12-29T14:31:51;100354.31;;;16.91;65.76
77161;BME280;66135;0.000;0.000;2022-12-29T14:42:14;100373.56;;;16.88;65.85
77161;BME280;66135;0.000;0.000;2022-12-29T14:44:57;100371.91;;;16.87;65.70
77161;BME280;66135;0.000;0.000;2022-12-29T14:49:55;100377.50;;;16.85;65.62
77161;BME280;66135;0.000;0.000;2022-12-29T14:52:26;100391.84;;;16.86;65.78
77161;BME280;66135;0.000;0.000;2022-12-29T14:54:56;100399.97;;;16.86;65.64
77161;BME280;66135;0.000;0.000;2022-12-29T14:59:53;100392.03;;;16.84;65.74
77161;BME280;66135;0.000;0.000;2022-12-29T15:02:21;100392.03;;;16.84;65.54
77161;BME280;66135;0.000;0.000;2022-12-29T15:04:48;100387.66;;;16.83;65.41
77161;BME280;66135;0.000;0.000;2022-12-29T15:07:14;100398.47;;;16.83;65.55
77161;BME280;66135;0.000;0.000;2022-12-29T15:09:43;100404.72;;;16.84;65.48
77161;BME280;66135;0.000;0.000;2022-12-29T15:12:35;100399.47;;;16.82;65.58
77161;BME280;66135;0.000;0.000;2022-12-29T15:15:18;100415.69;;;16.82;65.39
77161;BME280;66135;0.000;0.000;2022-12-29T15:17:43;100410.16;;;16.84;65.33
77161;BME280;66135;0.000;0.000;2022-12-29T15:20:22;100414.88;;;16.82;65.39
77161;BME280;66135;0.000;0.000;2022-12-29T15:23:00;100415.06;;;16.80;65.41
77161;BME280;66135;0.000;0.000;2022-12-29T15:25:27;100427.56;;;16.81;65.45
77161;BME280;66135;0.000;0.000;2022-12-29T15:27:57;100424.00;;;16.81;65.81
77161;BME280;66135;0.000;0.000;2022-12-29T15:30:24;100427.75;;;16.80;65.45
77161;BME280;66135;0.000;0.000;2022-12-29T15:32:50;100432.28;;;16.79;65.04
77161;BME280;66135;0.000;0.000;2022-12-29T15:37:51;100434.31;;;16.77;65.22
77161;BME280;66135;0.000;0.000;2022-12-29T15:40:26;100428.91;;;16.77;65.26
77161;BME280;66135;0.000;0.000;2022-12-29T15:43:02;100428.75;;;16.79;65.19
77161;BME280;66135;0.000;0.000;2022-12-29T15:45:33;100427.06;;;16.78;65.09
77161;BME280;66135;0.000;0.000;2022-12-29T15:48:00;100433.31;;;16.78;65.17
77161;BME280;66135;0.000;0.000;2022-12-29T15:50:35;100429.78;;;16.78;65.11
77161;BME280;66135;0.000;0.000;2022-12-29T15:53:10;100430.63;;;16.78;65.02
77161;BME280;66135;0.000;0.000;2022-12-29T15:55:38;100435.34;;;16.76;65.03
77161;BME280;66135;0.000;0.000;2022-12-29T15:58:16;100443.47;;;16.76;65.23
77161;BME280;66135;0.000;0.000;2022-12-29T16:00:47;100444.31;;;16.77;64.93
77161;BME280;66135;0.000;0.000;2022-12-29T16:03:13;100455.63;;;16.80;65.10
77161;BME280;66135;0.000;0.000;2022-12-29T16:05:40;100444.47;;;16.83;65.20
77161;BME280;66135;0.000;0.000;2022-12-29T16:08:38;100458.97;;;16.91;64.84
77161;BME280;66135;0.000;0.000;2022-12-29T16:11:21;100463.16;;;17.01;64.82
77161;BME280;66135;0.000;0.000;2022-12-29T16:13:49;100455.81;;;17.10;64.60
77161;BME280;66135;0.000;0.000;2022-12-29T16:16:21;100473.53;;;17.20;64.54
77161;BME280;66135;0.000;0.000;2022-12-29T16:18:49;100464.34;;;17.29;64.36
77161;BME280;66135;0.000;0.000;2022-12-29T16:21:19;100471.03;;;17.41;64.28
77161;BME280;66135;0.000;0.000;2022-12-29T16:23:49;100477.09;;;17.51;64.23
77161;BME280;66135;0.000;0.000;2022-12-29T16:26:20;100475.47;;;17.65;63.95
77161;BME280;66135;0.000;0.000;2022-12-29T16:28:50;100480.28;;;17.77;63.75
77161;BME280;66135;0.000;0.000;2022-12-29T16:31:25;100481.53;;;17.89;63.53
77161;BME280;66135;0.000;0.000;2022-12-29T16:33:57;100484.31;;;18.04;63.46
77161;BME280;66135;0.000;0.000;2022-12-29T16:36:25;100482.44;;;18.19;62.96
77161;BME280;66135;0.000;0.000;2022-12-29T16:41:49;100484.75;;;18.45;62.26
77161;BME280;66135;0.000;0.000;2022-12-29T16:44:23;100473.47;;;18.56;62.31
77161;BME280;66135;0.000;0.000;2022-12-29T16:49:38;100482.63;;;18.69;61.77
77161;BME280;66135;0.000;0.000;2022-12-29T16:52:25;100481.41;;;18.72;61.72
77161;BME280;66135;0.000;0.000;2022-12-29T16:54:56;100489.00;;;18.76;61.76
77161;BME280;66135;0.000;0.000;2022-12-29T16:57:25;100483.03;;;18.81;61.63
77161;BME280;66135;0.000;0.000;2022-12-29T16:59:53;100498.44;;;18.80;61.59
77161;BME280;66135;0.000;0.000;2022-12-29T21:57:20;100718.97;;;19.63;59.85
77161;BME280;66135;0.000;0.000;2022-12-29T22:00:07;100725.00;;;19.59;59.75
77161;BME280;66135;0.000;0.000;2022-12-29T22:02:51;100718.03;;;19.56;59.97
77161;BME280;66135;0.000;0.000;2022-12-29T22:05:35;100722.84;;;19.54;59.96
77161;BME280;66135;0.000;0.000;2022-12-29T22:08:19;100726.78;;;19.52;59.90
77161;BME280;66135;0.000;0.000;2022-12-29T22:11:07;100744.28;;;19.49;60.13
77161;BME280;66135;0.000;0.000;2022-12-29T22:13:51;100734.66;;;19.47;60.08
77161;BME280;66135;0.000;0.000;2022-12-29T22:16:21;100739.41;;;19.45;60.12
77161;BME280;66135;0.000;0.000;2022-12-29T22:18:47;100744.19;;;19.43;60.29
77161;BME280;66135;0.000;0.000;2022-12-29T22:21:12;100762.34;;;19.42;60.36